sensor_id;sensor_type;location;lat;lon;timestamp;P1;durP1;ratioP1;P2;durP2;ratioP2
4023;SDS011;2026;51.002;13.668;2022-10-16T00:02:19;10.27;;;6.50;;
4023;SDS011;2026;51.002;13.668;2022-10-16T00:07:23;7.80;;;6.70;;
4023;SDS011;2026;51.002;13.668;2022-10-16T00:12:27;5.80;;;5.20;;
4023;SDS011;2026;51.002;13.668;2022-10-16T00:17:30;9.87;;;6.10;;
4023;SDS011;2026;51.002;13.668;2022-10-16T00:22:34;8.77;;;6.20;;
4023;SDS011;2026;51.002;13.668;2022-10-16T00:27:37;9.10;;;4.50;;
4023;SDS011;2026;51.002;13.668;2022-10-16T00:32:40;7.70;;;6.90;;
4023;SDS011;2026;51.002;13.668;2022-10-16T00:37:45;10.70;;;6.63;;
4023;SDS011;2026;51.002;13.668;2022-10-16T00:42:47;10.77;;;7.70;;
4023;SDS011;2026;51.002;13.668;2022-10-16T00:47:51;10.60;;;8.40;;
4023;SDS011;2026;51.002;13.668;2022-10-16T00:52:58;11.90;;;7.13;;
4023;SDS011;2026;51.002;13.668;2022-10-16T00:58:02;12.97;;;7.10;;
4023;SDS011;2026;51.002;13.668;2022-10-16T01:08:31;13.60;;;6.97;;
4023;SDS011;2026;51.002;13.668;2022-10-16T01:13:41;8.70;;;7.00;;
4023;SDS011;2026;51.002;13.668;2022-10-16T01:18:49;10.20;;;7.30;;
4023;SDS011;2026;51.002;13.668;2022-10-16T01:23:59;12.80;;;8.60;;
4023;SDS011;2026;51.002;13.668;2022-10-16T01:29:12;11.53;;;7.87;;
4023;SDS011;2026;51.002;13.668;2022-10-16T01:34:20;10.70;;;8.20;;
4023;SDS011;2026;51.002;13.668;2022-10-16T01:39:28;12.83;;;8.17;;
4023;SDS011;2026;51.002;13.668;2022-10-16T01:44:35;8.13;;;7.00;;
4023;SDS011;2026;51.002;13.668;2022-10-16T01:49:41;8.00;;;6.83;;
4023;SDS011;2026;51.002;13.668;2022-10-16T01:54:46;7.40;;;5.90;;
4023;SDS011;2026;51.002;13.668;2022-10-16T01:59:54;8.60;;;5.30;;
4023;SDS011;2026;51.002;13.668;2022-10-16T02:05:02;7.47;;;5.63;;
4023;SDS011;2026;51.002;13.668;2022-10-16T02:10:10;5.23;;;3.97;;
4023;SDS011;2026;51.002;13.668;2022-10-16T02:15:15;4.63;;;3.17;;
4023;SDS011;2026;51.002;13.668;2022-10-16T02:20:18;5.60;;;4.90;;
4023;SDS011;2026;51.002;13.668;2022-10-16T02:25:29;3.33;;;3.00;;
4023;SDS011;2026;51.002;13.668;2022-10-16T02:30:36;9.33;;;7.50;;
4023;SDS011;2026;51.002;13.668;2022-10-16T02:35:43;12.40;;;10.40;;
4023;SDS011;2026;51.002;13.668;2022-10-16T02:40:48;49.53;;;36.80;;
4023;SDS011;2026;51.002;13.668;2022-10-16T02:45:53;35.73;;;26.83;;
4023;SDS011;2026;51.002;13.668;2022-10-16T02:50:56;24.83;;;18.50;;
4023;SDS011;2026;51.002;13.668;2022-10-16T02:55:59;18.70;;;15.87;;
4023;SDS011;2026;51.002;13.668;2022-10-16T03:01:03;14.00;;;11.97;;
4023;SDS011;2026;51.002;13.668;2022-10-16T03:06:06;10.00;;;8.73;;
4023;SDS011;2026;51.002;13.668;2022-10-16T03:11:09;8.70;;;5.70;;
4023;SDS011;2026;51.002;13.668;2022-10-16T03:16:14;5.63;;;5.10;;
4023;SDS011;2026;51.002;13.668;2022-10-16T03:21:16;16.37;;;11.33;;
4023;SDS011;2026;51.002;13.668;2022-10-16T03:26:19;19.93;;;13.20;;
4023;SDS011;2026;51.002;13.668;2022-10-16T03:31:24;19.23;;;12.87;;
4023;SDS011;2026;51.002;13.668;2022-10-16T03:36:27;13.20;;;9.90;;
4023;SDS011;2026;51.002;13.668;2022-10-16T03:41:30;12.37;;;8.87;;
4023;SDS011;2026;51.002;13.668;2022-10-16T03:46:34;11.57;;;8.53;;
4023;SDS011;2026;51.002;13.668;2022-10-16T03:51:37;11.63;;;8.63;;
4023;SDS011;2026;51.002;13.668;2022-10-16T03:56:40;10.40;;;7.60;;
4023;SDS011;2026;51.002;13.668;2022-10-16T04:01:44;14.50;;;8.07;;
4023;SDS011;2026;51.002;13.668;2022-10-16T04:06:47;10.03;;;7.20;;
4023;SDS011;2026;51.002;13.668;2022-10-16T04:11:50;7.97;;;6.00;;
4023;SDS011;2026;51.002;13.668;2022-10-16T04:16:54;7.83;;;5.97;;
4023;SDS011;2026;51.002;13.668;2022-10-16T04:21:57;7.40;;;5.67;;
4023;SDS011;2026;51.002;13.668;2022-10-16T04:27:00;7.87;;;5.10;;
4023;SDS011;2026;51.002;13.668;2022-10-16T04:32:04;4.53;;;3.70;;
4023;SDS011;2026;51.002;13.668;2022-10-16T04:37:07;5.00;;;2.90;;
4023;SDS011;2026;51.002;13.668;2022-10-16T04:42:10;8.47;;;5.57;;
4023;SDS011;2026;51.002;13.668;2022-10-16T04:47:15;7.63;;;5.37;;
4023;SDS011;2026;51.002;13.668;2022-10-16T04:52:18;4.20;;;3.80;;
4023;SDS011;2026;51.002;13.668;2022-10-16T04:57:23;5.73;;;4.53;;
4023;SDS011;2026;51.002;13.668;2022-10-16T05:02:27;9.50;;;4.50;;
4023;SDS011;2026;51.002;13.668;2022-10-16T05:07:30;3.00;;;2.70;;
4023;SDS011;2026;51.002;13.668;2022-10-16T05:12:33;9.80;;;4.97;;
4023;SDS011;2026;51.002;13.668;2022-10-16T05:17:37;6.67;;;4.80;;
4023;SDS011;2026;51.002;13.668;2022-10-16T05:22:45;7.27;;;4.90;;
4023;SDS011;2026;51.002;13.668;2022-10-16T05:27:48;7.13;;;5.30;;
4023;SDS011;2026;51.002;13.668;2022-10-16T05:32:53;7.27;;;5.00;;
4023;SDS011;2026;51.002;13.668;2022-10-16T05:37:56;13.23;;;5.97;;
4023;SDS011;2026;51.002;13.668;2022-10-16T05:42:59;9.93;;;7.90;;
4023;SDS011;2026;51.002;13.668;2022-10-16T05:48:03;9.30;;;5.70;;
4023;SDS011;2026;51.002;13.668;2022-10-16T05:53:06;9.97;;;6.70;;
4023;SDS011;2026;51.002;13.668;2022-10-16T05:58:09;8.17;;;5.67;;
4023;SDS011;2026;51.002;13.668;2022-10-16T06:03:14;7.00;;;5.67;;
4023;SDS011;2026;51.002;13.668;2022-10-16T06:08:17;7.40;;;5.37;;
4023;SDS011;2026;51.002;13.668;2022-10-16T06:13:20;11.60;;;6.37;;
4023;SDS011;2026;51.002;13.668;2022-10-16T06:18:24;6.63;;;5.67;;
4023;SDS011;2026;51.002;13.668;2022-10-16T06:23:27;11.30;;;5.37;;
4023;SDS011;2026;51.002;13.668;2022-10-16T06:28:31;6.77;;;5.50;;
4023;SDS011;2026;51.002;13.668;2022-10-16T06:33:36;8.60;;;6.23;;
4023;SDS011;2026;51.002;13.668;2022-10-16T06:38:39;7.77;;;6.20;;
4023;SDS011;2026;51.002;13.668;2022-10-16T06:43:43;8.30;;;5.97;;
4023;SDS011;2026;51.002;13.668;2022-10-16T06:48:48;6.63;;;4.90;;
4023;SDS011;2026;51.002;13.668;2022-10-16T06:53:52;10.03;;;5.93;;
4023;SDS011;2026;51.002;13.668;2022-10-16T06:59:05;8.80;;;6.73;;
4023;SDS011;2026;51.002;13.668;2022-10-16T07:04:09;7.43;;;5.53;;
4023;SDS011;2026;51.002;13.668;2022-10-16T07:09:12;15.00;;;7.10;;
4023;SDS011;2026;51.002;13.668;2022-10-16T07:14:16;7.97;;;5.40;;
4023;SDS011;2026;51.002;13.668;2022-10-16T07:19:22;2.33;;;2.13;;
4023;SDS011;2026;51.002;13.668;2022-10-16T07:24:30;1.67;;;1.47;;
4023;SDS011;2026;51.002;13.668;2022-10-16T07:29:34;2.03;;;1.70;;
4023;SDS011;2026;51.002;13.668;2022-10-16T07:34:38;6.70;;;3.50;;
4023;SDS011;2026;51.002;13.668;2022-10-16T07:39:41;5.27;;;4.40;;
4023;SDS011;2026;51.002;13.668;2022-10-16T07:44:44;5.77;;;5.10;;
4023;SDS011;2026;51.002;13.668;2022-10-16T07:49:48;7.63;;;4.70;;
4023;SDS011;2026;51.002;13.668;2022-10-16T07:54:51;28.10;;;20.00;;
4023;SDS011;2026;51.002;13.668;2022-10-16T07:59:55;3.27;;;2.90;;
4023;SDS011;2026;51.002;13.668;2022-10-16T08:05:00;8.13;;;5.30;;
4023;SDS011;2026;51.002;13.668;2022-10-16T08:10:03;27.83;;;25.33;;
4023;SDS011;2026;51.002;13.668;2022-10-16T08:15:08;4.40;;;3.50;;
4023;SDS011;2026;51.002;13.668;2022-10-16T08:20:13;6.40;;;4.60;;
4023;SDS011;2026;51.002;13.668;2022-10-16T08:25:16;9.70;;;4.30;;
4023;SDS011;2026;51.002;13.668;2022-10-16T08:30:20;5.00;;;4.17;;
4023;SDS011;2026;51.002;13.668;2022-10-16T08:35:26;3.20;;;2.90;;
4023;SDS011;2026;51.002;13.668;2022-10-16T08:40:30;5.13;;;2.50;;
4023;SDS011;2026;51.002;13.668;2022-10-16T08:45:38;3.47;;;3.00;;
4023;SDS011;2026;51.002;13.668;2022-10-16T08:50:53;5.60;;;4.30;;
4023;SDS011;2026;51.002;13.668;2022-10-16T08:55:57;2.30;;;2.20;;
4023;SDS011;2026;51.002;13.668;2022-10-16T09:01:01;2.60;;;2.13;;
4023;SDS011;2026;51.002;13.668;2022-10-16T09:06:09;2.23;;;2.03;;
4023;SDS011;2026;51.002;13.668;2022-10-16T09:11:21;1.63;;;1.50;;
4023;SDS011;2026;51.002;13.668;2022-10-16T09:16:37;1.70;;;1.60;;
4023;SDS011;2026;51.002;13.668;2022-10-16T09:21:46;2.07;;;1.40;;
4023;SDS011;2026;51.002;13.668;2022-10-16T09:26:49;1.83;;;1.40;;
4023;SDS011;2026;51.002;13.668;2022-10-16T09:31:54;1.63;;;1.20;;
4023;SDS011;2026;51.002;13.668;2022-10-16T09:37:11;1.20;;;1.10;;
4023;SDS011;2026;51.002;13.668;2022-10-16T09:42:17;1.10;;;1.00;;
4023;SDS011;2026;51.002;13.668;2022-10-16T09:47:23;2.10;;;1.43;;
4023;SDS011;2026;51.002;13.668;2022-10-16T09:52:30;1.20;;;1.10;;
4023;SDS011;2026;51.002;13.668;2022-10-16T09:57:33;1.57;;;1.37;;
4023;SDS011;2026;51.002;13.668;2022-10-16T10:02:37;2.40;;;1.10;;
4023;SDS011;2026;51.002;13.668;2022-10-16T10:07:43;1.23;;;1.13;;
4023;SDS011;2026;51.002;13.668;2022-10-16T10:12:47;2.17;;;1.30;;
4023;SDS011;2026;51.002;13.668;2022-10-16T10:17:51;1.50;;;1.40;;
4023;SDS011;2026;51.002;13.668;2022-10-16T10:22:57;1.43;;;1.33;;
4023;SDS011;2026;51.002;13.668;2022-10-16T10:28:06;1.63;;;1.50;;
4023;SDS011;2026;51.002;13.668;2022-10-16T10:33:23;3.13;;;1.30;;
4023;SDS011;2026;51.002;13.668;2022-10-16T10:38:35;1.37;;;1.27;;
4023;SDS011;2026;51.002;13.668;2022-10-16T10:43:48;1.37;;;1.27;;
4023;SDS011;2026;51.002;13.668;2022-10-16T10:49:05;6.10;;;1.33;;
4023;SDS011;2026;51.002;13.668;2022-10-16T10:54:22;1.40;;;1.30;;
4023;SDS011;2026;51.002;13.668;2022-10-16T10:59:42;1.97;;;1.50;;
4023;SDS011;2026;51.002;13.668;2022-10-16T11:05:10;1.50;;;1.10;;
4023;SDS011;2026;51.002;13.668;2022-10-16T11:10:27;1.60;;;0.90;;
4023;SDS011;2026;51.002;13.668;2022-10-16T11:15:35;1.73;;;1.10;;
4023;SDS011;2026;51.002;13.668;2022-10-16T11:20:42;1.67;;;1.07;;
4023;SDS011;2026;51.002;13.668;2022-10-16T11:25:51;3.13;;;1.00;;
4023;SDS011;2026;51.002;13.668;2022-10-16T11:30:57;1.10;;;1.00;;
4023;SDS011;2026;51.002;13.668;2022-10-16T11:36:07;1.10;;;1.00;;
4023;SDS011;2026;51.002;13.668;2022-10-16T11:41:18;1.20;;;1.00;;
4023;SDS011;2026;51.002;13.668;2022-10-16T11:46:27;2.40;;;1.03;;
4023;SDS011;2026;51.002;13.668;2022-10-16T11:51:31;1.80;;;0.93;;
4023;SDS011;2026;51.002;13.668;2022-10-16T11:56:42;3.10;;;1.20;;
4023;SDS011;2026;51.002;13.668;2022-10-16T12:01:49;1.03;;;0.90;;
4023;SDS011;2026;51.002;13.668;2022-10-16T12:06:58;1.57;;;1.30;;
4023;SDS011;2026;51.002;13.668;2022-10-16T12:17:35;1.87;;;1.13;;
4023;SDS011;2026;51.002;13.668;2022-10-16T12:22:41;3.00;;;1.20;;
4023;SDS011;2026;51.002;13.668;2022-10-16T12:27:57;1.10;;;1.00;;
4023;SDS011;2026;51.002;13.668;2022-10-16T12:33:03;2.07;;;1.00;;
4023;SDS011;2026;51.002;13.668;2022-10-16T12:38:15;0.77;;;0.77;;
4023;SDS011;2026;51.002;13.668;2022-10-16T12:43:34;0.93;;;0.90;;
4023;SDS011;2026;51.002;13.668;2022-10-16T12:48:40;1.00;;;1.00;;
4023;SDS011;2026;51.002;13.668;2022-10-16T12:54:11;1.83;;;1.10;;
4023;SDS011;2026;51.002;13.668;2022-10-16T12:59:21;1.27;;;1.10;;
4023;SDS011;2026;51.002;13.668;2022-10-16T13:04:43;1.17;;;1.03;;
4023;SDS011;2026;51.002;13.668;2022-10-16T13:10:04;1.83;;;1.10;;
4023;SDS011;2026;51.002;13.668;2022-10-16T13:15:22;1.30;;;1.20;;
4023;SDS011;2026;51.002;13.668;2022-10-16T13:20:40;2.43;;;1.50;;
4023;SDS011;2026;51.002;13.668;2022-10-16T13:26:00;2.10;;;1.20;;
4023;SDS011;2026;51.002;13.668;2022-10-16T13:31:17;2.30;;;1.30;;
4023;SDS011;2026;51.002;13.668;2022-10-16T13:36:24;1.97;;;1.37;;
4023;SDS011;2026;51.002;13.668;2022-10-16T13:41:28;1.33;;;1.23;;
4023;SDS011;2026;51.002;13.668;2022-10-16T13:46:33;1.50;;;1.40;;
4023;SDS011;2026;51.002;13.668;2022-10-16T13:51:36;2.70;;;1.33;;
4023;SDS011;2026;51.002;13.668;2022-10-16T13:56:39;2.13;;;1.53;;
4023;SDS011;2026;51.002;13.668;2022-10-16T14:01:44;5.00;;;1.30;;
4023;SDS011;2026;51.002;13.668;2022-10-16T14:06:48;1.30;;;1.20;;
4023;SDS011;2026;51.002;13.668;2022-10-16T14:11:53;1.17;;;1.07;;
4023;SDS011;2026;51.002;13.668;2022-10-16T14:17:00;1.73;;;1.40;;
4023;SDS011;2026;51.002;13.668;2022-10-16T14:22:26;2.50;;;1.10;;
4023;SDS011;2026;51.002;13.668;2022-10-16T14:27:33;1.90;;;1.43;;
4023;SDS011;2026;51.002;13.668;2022-10-16T14:32:39;1.47;;;1.27;;
4023;SDS011;2026;51.002;13.668;2022-10-16T14:37:43;1.83;;;1.10;;
4023;SDS011;2026;51.002;13.668;2022-10-16T14:42:47;3.70;;;2.87;;
4023;SDS011;2026;51.002;13.668;2022-10-16T14:47:52;1.87;;;1.37;;
4023;SDS011;2026;51.002;13.668;2022-10-16T14:52:57;4.47;;;1.70;;
4023;SDS011;2026;51.002;13.668;2022-10-16T14:58:01;1.30;;;1.20;;
4023;SDS011;2026;51.002;13.668;2022-10-16T15:03:05;3.53;;;1.77;;
4023;SDS011;2026;51.002;13.668;2022-10-16T15:08:08;3.13;;;1.60;;
4023;SDS011;2026;51.002;13.668;2022-10-16T15:13:12;6.33;;;5.33;;
4023;SDS011;2026;51.002;13.668;2022-10-16T15:18:16;1.50;;;1.40;;
4023;SDS011;2026;51.002;13.668;2022-10-16T15:23:21;8.10;;;1.40;;
4023;SDS011;2026;51.002;13.668;2022-10-16T15:28:30;2.53;;;1.60;;
4023;SDS011;2026;51.002;13.668;2022-10-16T15:33:34;2.17;;;1.47;;
4023;SDS011;2026;51.002;13.668;2022-10-16T15:38:40;5.33;;;1.57;;
4023;SDS011;2026;51.002;13.668;2022-10-16T15:43:43;4.13;;;1.30;;
4023;SDS011;2026;51.002;13.668;2022-10-16T15:48:48;6.00;;;1.80;;
4023;SDS011;2026;51.002;13.668;2022-10-16T15:53:53;2.57;;;1.20;;
4023;SDS011;2026;51.002;13.668;2022-10-16T15:58:56;3.63;;;1.60;;
4023;SDS011;2026;51.002;13.668;2022-10-16T16:04:01;3.33;;;2.47;;
4023;SDS011;2026;51.002;13.668;2022-10-16T16:09:15;3.47;;;2.87;;
4023;SDS011;2026;51.002;13.668;2022-10-16T16:14:18;3.30;;;2.60;;
4023;SDS011;2026;51.002;13.668;2022-10-16T16:19:23;6.30;;;3.20;;
4023;SDS011;2026;51.002;13.668;2022-10-16T16:24:26;6.40;;;3.43;;
4023;SDS011;2026;51.002;13.668;2022-10-16T16:29:29;3.60;;;3.07;;
4023;SDS011;2026;51.002;13.668;2022-10-16T16:34:33;8.50;;;3.00;;
4023;SDS011;2026;51.002;13.668;2022-10-16T16:39:36;6.00;;;3.70;;
4023;SDS011;2026;51.002;13.668;2022-10-16T16:44:39;8.27;;;3.73;;
4023;SDS011;2026;51.002;13.668;2022-10-16T16:49:44;6.83;;;4.33;;
4023;SDS011;2026;51.002;13.668;2022-10-16T16:54:48;4.10;;;3.00;;
4023;SDS011;2026;51.002;13.668;2022-10-16T16:59:53;7.70;;;4.57;;
4023;SDS011;2026;51.002;13.668;2022-10-16T17:04:57;7.77;;;5.83;;
4023;SDS011;2026;51.002;13.668;2022-10-16T17:10:00;3.30;;;2.50;;
4023;SDS011;2026;51.002;13.668;2022-10-16T17:15:04;2.63;;;2.07;;
4023;SDS011;2026;51.002;13.668;2022-10-16T17:20:09;16.87;;;14.07;;
4023;SDS011;2026;51.002;13.668;2022-10-16T17:25:12;6.27;;;4.70;;
4023;SDS011;2026;51.002;13.668;2022-10-16T17:30:15;5.97;;;3.60;;
4023;SDS011;2026;51.002;13.668;2022-10-16T17:35:20;6.37;;;3.83;;
4023;SDS011;2026;51.002;13.668;2022-10-16T17:40:24;7.80;;;6.53;;
4023;SDS011;2026;51.002;13.668;2022-10-16T17:45:27;11.03;;;8.10;;
4023;SDS011;2026;51.002;13.668;2022-10-16T17:50:31;8.00;;;6.73;;
4023;SDS011;2026;51.002;13.668;2022-10-16T17:55:36;12.37;;;9.27;;
4023;SDS011;2026;51.002;13.668;2022-10-16T18:00:40;12.27;;;9.90;;
4023;SDS011;2026;51.002;13.668;2022-10-16T18:05:44;12.63;;;10.77;;
4023;SDS011;2026;51.002;13.668;2022-10-16T18:10:48;13.60;;;10.67;;
4023;SDS011;2026;51.002;13.668;2022-10-16T18:15:58;13.83;;;10.87;;
4023;SDS011;2026;51.002;13.668;2022-10-16T18:21:03;11.40;;;10.20;;
4023;SDS011;2026;51.002;13.668;2022-10-16T18:26:08;10.60;;;9.17;;
4023;SDS011;2026;51.002;13.668;2022-10-16T18:31:12;11.60;;;7.77;;
4023;SDS011;2026;51.002;13.668;2022-10-16T18:36:19;8.97;;;8.07;;
4023;SDS011;2026;51.002;13.668;2022-10-16T18:41:24;8.13;;;7.33;;
4023;SDS011;2026;51.002;13.668;2022-10-16T18:46:28;8.00;;;6.07;;
4023;SDS011;2026;51.002;13.668;2022-10-16T18:51:33;10.50;;;6.13;;
4023;SDS011;2026;51.002;13.668;2022-10-16T18:56:38;17.13;;;10.90;;
4023;SDS011;2026;51.002;13.668;2022-10-16T19:01:41;15.20;;;8.10;;
4023;SDS011;2026;51.002;13.668;2022-10-16T19:06:46;11.80;;;9.70;;
4023;SDS011;2026;51.002;13.668;2022-10-16T19:11:51;9.80;;;7.90;;
4023;SDS011;2026;51.002;13.668;2022-10-16T19:16:54;11.40;;;9.20;;
4023;SDS011;2026;51.002;13.668;2022-10-16T19:21:59;10.53;;;8.70;;
4023;SDS011;2026;51.002;13.668;2022-10-16T19:27:14;16.60;;;10.00;;
4023;SDS011;2026;51.002;13.668;2022-10-16T19:32:17;13.10;;;10.77;;
4023;SDS011;2026;51.002;13.668;2022-10-16T19:37:21;15.80;;;12.30;;
4023;SDS011;2026;51.002;13.668;2022-10-16T19:42:26;13.77;;;11.53;;
4023;SDS011;2026;51.002;13.668;2022-10-16T19:47:30;11.20;;;10.00;;
4023;SDS011;2026;51.002;13.668;2022-10-16T19:52:34;11.40;;;9.53;;
4023;SDS011;2026;51.002;13.668;2022-10-16T19:57:38;11.20;;;10.10;;
4023;SDS011;2026;51.002;13.668;2022-10-16T20:02:41;11.50;;;9.20;;
4023;SDS011;2026;51.002;13.668;2022-10-16T20:07:45;11.27;;;8.87;;
4023;SDS011;2026;51.002;13.668;2022-10-16T20:12:48;10.53;;;8.73;;
4023;SDS011;2026;51.002;13.668;2022-10-16T20:17:51;14.20;;;9.00;;
4023;SDS011;2026;51.002;13.668;2022-10-16T20:22:56;10.17;;;8.20;;
4023;SDS011;2026;51.002;13.668;2022-10-16T20:27:59;11.40;;;9.30;;
4023;SDS011;2026;51.002;13.668;2022-10-16T20:33:02;16.60;;;9.73;;
4023;SDS011;2026;51.002;13.668;2022-10-16T20:38:06;14.30;;;9.33;;
4023;SDS011;2026;51.002;13.668;2022-10-16T20:43:10;10.43;;;8.40;;
4023;SDS011;2026;51.002;13.668;2022-10-16T20:48:14;9.90;;;8.53;;
4023;SDS011;2026;51.002;13.668;2022-10-16T20:53:18;11.43;;;8.37;;
4023;SDS011;2026;51.002;13.668;2022-10-16T20:58:21;10.83;;;8.10;;
4023;SDS011;2026;51.002;13.668;2022-10-16T21:03:24;9.67;;;8.60;;
4023;SDS011;2026;51.002;13.668;2022-10-16T21:08:29;8.93;;;6.13;;
4023;SDS011;2026;51.002;13.668;2022-10-16T21:13:32;9.07;;;7.23;;
4023;SDS011;2026;51.002;13.668;2022-10-16T21:18:35;13.30;;;7.13;;
4023;SDS011;2026;51.002;13.668;2022-10-16T21:23:46;7.60;;;6.60;;
4023;SDS011;2026;51.002;13.668;2022-10-16T21:28:49;9.83;;;7.33;;
4023;SDS011;2026;51.002;13.668;2022-10-16T21:33:52;10.97;;;6.60;;
4023;SDS011;2026;51.002;13.668;2022-10-16T21:39:00;14.00;;;10.10;;
4023;SDS011;2026;51.002;13.668;2022-10-16T21:44:04;12.10;;;7.17;;
4023;SDS011;2026;51.002;13.668;2022-10-16T21:49:09;14.13;;;8.47;;
4023;SDS011;2026;51.002;13.668;2022-10-16T21:54:16;9.13;;;7.27;;
4023;SDS011;2026;51.002;13.668;2022-10-16T21:59:20;9.77;;;6.60;;
4023;SDS011;2026;51.002;13.668;2022-10-16T22:04:23;8.80;;;7.30;;
4023;SDS011;2026;51.002;13.668;2022-10-16T22:09:27;10.60;;;5.67;;
4023;SDS011;2026;51.002;13.668;2022-10-16T22:14:30;6.87;;;5.70;;
4023;SDS011;2026;51.002;13.668;2022-10-16T22:19:33;12.73;;;6.03;;
4023;SDS011;2026;51.002;13.668;2022-10-16T22:24:37;6.40;;;5.80;;
4023;SDS011;2026;51.002;13.668;2022-10-16T22:29:40;8.37;;;5.63;;
4023;SDS011;2026;51.002;13.668;2022-10-16T22:34:43;9.47;;;5.30;;
4023;SDS011;2026;51.002;13.668;2022-10-16T22:39:48;10.50;;;6.00;;
4023;SDS011;2026;51.002;13.668;2022-10-16T22:44:50;15.03;;;6.73;;
4023;SDS011;2026;51.002;13.668;2022-10-16T22:49:53;12.13;;;5.60;;
4023;SDS011;2026;51.002;13.668;2022-10-16T22:54:58;10.23;;;7.10;;
4023;SDS011;2026;51.002;13.668;2022-10-16T23:00:01;6.83;;;6.10;;
4023;SDS011;2026;51.002;13.668;2022-10-16T23:05:05;8.37;;;5.70;;
4023;SDS011;2026;51.002;13.668;2022-10-16T23:10:10;6.83;;;5.47;;
4023;SDS011;2026;51.002;13.668;2022-10-16T23:15:13;8.40;;;5.60;;
4023;SDS011;2026;51.002;13.668;2022-10-16T23:20:16;6.73;;;5.93;;
4023;SDS011;2026;51.002;13.668;2022-10-16T23:25:20;10.10;;;5.30;;
4023;SDS011;2026;51.002;13.668;2022-10-16T23:30:23;8.60;;;5.50;;
4023;SDS011;2026;51.002;13.668;2022-10-16T23:35:26;6.63;;;5.20;;
4023;SDS011;2026;51.002;13.668;2022-10-16T23:40:30;10.50;;;5.83;;
4023;SDS011;2026;51.002;13.668;2022-10-16T23:45:33;8.80;;;5.60;;
4023;SDS011;2026;51.002;13.668;2022-10-16T23:50:36;5.50;;;4.60;;
4023;SDS011;2026;51.002;13.668;2022-10-16T23:55:41;6.50;;;4.80;;
